Darracott, Mississippi
Current Conditions -  °F | °C
As of 1:55 PM on Wednesday 17 Dec 2014 (Local Time) from KM40 Reporting Station
Few Clouds Few Clouds  
Wind Chill: 54°   Ceiling: Unl
Heat Index: 54°   Visibility: 9mi
Dew Point: 37°   Wind: 6mph
Humidity: 54%   Direction: 30°NNE
Pressure: 30.25"   Gusts: NA
Location:  33.8251°N, 88.6185°W
Report Text: KM40 171955Z AUTO 03005KT 9SM FEW025 12/03 A3025 RMK AO2
Loading
Personal Weather Stations






























Interactive Weather Map New forecast layout! Learn more

10-Day Weather Forecast

Advertisements
Track Severe Weather on mobile